Time;durP1;ratioP1;P1;durP2;ratioP2;P2;SDS_P1;SDS_P2;PMS_P1;PMS_P2;Temp;Humidity;BMP_temperature;BMP_pressure;BME280_temperature;BME280_humidity;BME280_pressure;Samples;Min_cycle;Max_cycle;Signal;HPM_P1;HPM_P2
2021/10/15 00:01:40;;;;;;;34.05;21.92;;;;;;;;;;5046800;28;20072;-83
2021/10/15 00:04:14;;;;;;;31.20;21.23;;;;;;;;;;5051884;28;20307;-83
2021/10/15 00:06:54;;;;;;;28.90;21.80;;;;;;;;;;5064113;28;20114;-83
2021/10/15 00:09:57;;;;;;;32.22;21.33;;;;;;;;;;5066656;28;20404;-83
2021/10/15 00:12:57;;;;;;;29.80;20.80;;;;;;;;;;5040418;28;20096;-84
2021/10/15 00:18:45;;;;;;;31.27;19.60;;;;;;;;;;5075119;28;20040;-83
2021/10/15 00:21:28;;;;;;;27.52;18.80;;;;;;;;;;5057521;28;20432;-83
2021/10/15 00:24:07;;;;;;;24.42;18.50;;;;;;;;;;5047174;28;20104;-83
2021/10/15 00:27:05;;;;;;;26.17;18.63;;;;;;;;;;5046112;28;20124;-83
2021/10/15 00:29:37;;;;;;;27.92;17.08;;;;;;;;;;5059148;28;20052;-83
2021/10/15 00:32:23;;;;;;;27.45;17.98;;;;;;;;;;5054945;28;20067;-83
2021/10/15 00:35:25;;;;;;;28.95;17.38;;;;;;;;;;5060675;28;20085;-84
2021/10/15 00:38:13;;;;;;;25.13;17.13;;;;;;;;;;5060076;28;20063;-84
2021/10/15 00:41:08;;;;;;;23.92;17.50;;;;;;;;;;5042233;28;20037;-84
2021/10/15 00:43:58;;;;;;;25.38;16.65;;;;;;;;;;5038663;28;20088;-84
2021/10/15 00:46:38;;;;;;;26.95;17.92;;;;;;;;;;5040300;28;20235;-84
2021/10/15 00:49:27;;;;;;;26.75;17.73;;;;;;;;;;5038384;28;20049;-84
2021/10/15 00:52:17;;;;;;;26.45;17.45;;;;;;;;;;5039873;28;20156;-84
2021/10/15 00:55:04;;;;;;;29.55;18.77;;;;;;;;;;5041382;28;20086;-83
2021/10/15 00:57:36;;;;;;;27.65;19.50;;;;;;;;;;5044768;28;20072;-84
2021/10/15 01:00:21;;;;;;;26.75;17.85;;;;;;;;;;5048291;28;20064;-83
2021/10/15 01:03:15;;;;;;;31.00;21.75;;;;;;;;;;5043304;28;20265;-84
2021/10/15 01:06:12;;;;;;;30.45;19.65;;;;;;;;;;5045226;28;20049;-84
2021/10/15 01:11:50;;;;;;;;;;;;;;;;;;;;;
2021/10/15 01:14:43;;;;;;;33.60;21.27;;;;;;;;;;5039921;28;20060;-84
2021/10/15 01:17:17;;;;;;;31.55;21.42;;;;;;;;;;5039312;28;20140;-84
2021/10/15 01:20:13;;;;;;;30.27;19.98;;;;;;;;;;5040739;28;20270;-84
2021/10/15 01:23:00;;;;;;;41.42;21.80;;;;;;;;;;5038071;28;20131;-83
2021/10/15 01:25:44;;;;;;;30.60;20.83;;;;;;;;;;5038415;28;20085;-83
2021/10/15 01:28:39;;;;;;;32.88;20.00;;;;;;;;;;5037621;28;20103;-83
2021/10/15 01:31:14;;;;;;;29.63;19.92;;;;;;;;;;5038233;28;20121;-83
2021/10/15 01:34:12;;;;;;;32.15;20.02;;;;;;;;;;5037147;28;20046;-83
2021/10/15 01:37:09;;;;;;;27.65;19.13;;;;;;;;;;5036519;28;20053;-83
2021/10/15 01:39:56;;;;;;;32.42;19.17;;;;;;;;;;5035817;28;20112;-83
2021/10/15 01:42:58;;;;;;;29.75;20.33;;;;;;;;;;5031786;28;20154;-83
2021/10/15 01:45:36;;;;;;;;;;;;;;;;;;5041696;28;20152;-83
2021/10/15 01:48:07;;;;;;;28.73;19.13;;;;;;;;;;5040049;28;19966;-83
2021/10/15 01:50:50;;;;;;;31.58;19.05;;;;;;;;;;5055976;28;20051;-83
2021/10/15 01:53:48;;;;;;;31.67;19.05;;;;;;;;;;5055628;28;20202;-83
2021/10/15 01:56:36;;;;;;;31.00;18.42;;;;;;;;;;5028144;28;20041;-83
2021/10/15 01:59:29;;;;;;;;;;;;;;;;;;;;;
2021/10/15 02:05:27;;;;;;;25.60;16.88;;;;;;;;;;5049307;28;20076;-83
2021/10/15 02:08:06;;;;;;;28.13;16.35;;;;;;;;;;5058290;28;20344;-83
2021/10/15 02:10:37;;;;;;;25.55;16.05;;;;;;;;;;5040890;28;20065;-83
2021/10/15 02:13:33;;;;;;;25.05;15.40;;;;;;;;;;5040224;28;20059;-83
2021/10/15 02:16:11;;;;;;;29.45;15.73;;;;;;;;;;5038947;28;20412;-83
2021/10/15 02:19:04;;;;;;;24.77;14.75;;;;;;;;;;5041324;28;20063;-82
2021/10/15 02:21:37;;;;;;;22.95;13.73;;;;;;;;;;5040662;28;20067;-82
2021/10/15 02:24:15;;;;;;;20.73;14.50;;;;;;;;;;5055176;28;20064;-83
2021/10/15 02:26:49;;;;;;;28.92;14.27;;;;;;;;;;5040187;28;20328;-83
2021/10/15 02:29:39;;;;;;;18.77;12.98;;;;;;;;;;5034186;28;20116;-83
2021/10/15 02:32:19;;;;;;;21.58;12.98;;;;;;;;;;5071704;28;20048;-83
2021/10/15 02:34:51;;;;;;;21.83;13.55;;;;;;;;;;5066536;28;20057;-83
2021/10/15 02:37:43;;;;;;;18.65;12.50;;;;;;;;;;5055743;28;20091;-83
2021/10/15 02:40:22;;;;;;;21.42;12.40;;;;;;;;;;5038865;28;20115;-83
2021/10/15 02:42:55;;;;;;;20.38;12.63;;;;;;;;;;5053994;28;20159;-83
2021/10/15 02:45:37;;;;;;;22.88;13.05;;;;;;;;;;5039540;28;20059;-83
2021/10/15 02:48:13;;;;;;;22.90;12.40;;;;;;;;;;5057677;28;20106;-83
2021/10/15 02:50:52;;;;;;;22.38;12.45;;;;;;;;;;5058444;28;20052;-83
2021/10/15 02:53:26;;;;;;;23.33;12.57;;;;;;;;;;5055403;28;20054;-83
2021/10/15 02:56:02;;;;;;;24.70;14.48;;;;;;;;;;5039782;28;20057;-83
2021/10/15 02:58:45;;;;;;;23.42;13.27;;;;;;;;;;5040577;28;20349;-83
2021/10/15 03:01:25;;;;;;;21.77;13.93;;;;;;;;;;5038479;28;20053;-83
2021/10/15 03:03:57;;;;;;;24.27;13.95;;;;;;;;;;5037453;28;20111;-83
2021/10/15 03:06:31;;;;;;;24.67;14.50;;;;;;;;;;5057108;28;20044;-83
2021/10/15 03:09:12;;;;;;;23.40;13.57;;;;;;;;;;5057547;28;20061;-84
2021/10/15 03:11:48;;;;;;;23.90;13.75;;;;;;;;;;5039000;28;20117;-83
2021/10/15 03:14:23;;;;;;;24.83;15.23;;;;;;;;;;5056861;28;20114;-83
2021/10/15 03:17:17;;;;;;;24.17;14.00;;;;;;;;;;5040490;28;20425;-83
2021/10/15 03:19:56;;;;;;;23.38;14.88;;;;;;;;;;5055991;28;20292;-83
2021/10/15 03:22:34;;;;;;;25.95;14.70;;;;;;;;;;5054814;28;20064;-83
2021/10/15 03:25:26;;;;;;;24.95;15.65;;;;;;;;;;5040785;28;20159;-84
2021/10/15 03:28:17;;;;;;;;;;;;;;;;;;;;;
2021/10/15 03:30:58;;;;;;;27.08;14.05;;;;;;;;;;5058042;28;20050;-83
2021/10/15 03:33:54;;;;;;;22.08;13.93;;;;;;;;;;5039735;28;20428;-83
2021/10/15 03:36:39;;;;;;;26.35;15.10;;;;;;;;;;5040924;28;20049;-83
2021/10/15 03:39:27;;;;;;;25.98;15.90;;;;;;;;;;5044893;28;20067;-84
2021/10/15 03:42:11;;;;;;;;;;;;;;;;;;;;;
2021/10/15 03:45:06;;;;;;;28.45;15.90;;;;;;;;;;5069790;28;20139;-83
2021/10/15 03:47:49;;;;;;;26.30;15.82;;;;;;;;;;5055709;28;20063;-83
2021/10/15 03:50:52;;;;;;;;;;;;;;;;;;;;;
2021/10/15 03:53:32;;;;;;;29.42;15.68;;;;;;;;;;5072286;28;20064;-84
2021/10/15 03:56:17;;;;;;;25.95;15.80;;;;;;;;;;5050357;28;20057;-84
2021/10/15 03:58:51;;;;;;;23.65;14.10;;;;;;;;;;5040581;28;20061;-84
2021/10/15 04:01:47;;;;;;;26.20;14.40;;;;;;;;;;5039436;28;20138;-84
2021/10/15 04:04:35;;;;;;;23.63;14.25;;;;;;;;;;5055001;28;20064;-84
2021/10/15 04:07:28;;;;;;;26.17;14.13;;;;;;;;;;5039127;28;20053;-83
2021/10/15 04:09:58;;;;;;;22.73;13.18;;;;;;;;;;5039357;28;20053;-82
2021/10/15 04:13:06;;;;;;;22.05;13.85;;;;;;;;;;5059573;28;20092;-83
2021/10/15 04:16:13;;;;;;;22.25;13.73;;;;;;;;;;5045061;28;20421;-83
2021/10/15 04:18:55;;;;;;;25.13;13.45;;;;;;;;;;5056703;28;20321;-84
2021/10/15 04:21:31;;;;;;;29.00;15.45;;;;;;;;;;5039381;28;20065;-85
2021/10/15 04:24:44;;;;;;;23.58;15.35;;;;;;;;;;5044993;28;20266;-84
2021/10/15 04:27:50;;;;;;;24.40;13.60;;;;;;;;;;5038169;28;20122;-84
2021/10/15 04:34:01;;;;;;;23.02;14.30;;;;;;;;;;5052626;28;20103;-84
2021/10/15 04:36:37;;;;;;;23.05;13.32;;;;;;;;;;5037006;28;20049;-84
2021/10/15 04:39:19;;;;;;;27.80;14.65;;;;;;;;;;5034568;28;20259;-84
2021/10/15 04:45:11;;;;;;;24.58;14.95;;;;;;;;;;5051545;28;19920;-83
2021/10/15 04:47:53;;;;;;;26.23;15.45;;;;;;;;;;5049527;28;20151;-83
2021/10/15 04:50:41;;;;;;;;;;;;;;;;;;;;;
2021/10/15 04:53:38;;;;;;;23.48;15.05;;;;;;;;;;5050896;28;20561;-83
2021/10/15 04:56:18;;;;;;;22.10;14.25;;;;;;;;;;5050985;28;20231;-83
2021/10/15 04:58:48;;;;;;;22.90;14.77;;;;;;;;;;5032537;28;20234;-83
2021/10/15 05:01:31;;;;;;;24.80;15.45;;;;;;;;;;5052327;28;20147;-83
2021/10/15 05:04:04;;;;;;;23.27;14.85;;;;;;;;;;5035470;28;20168;-83
2021/10/15 05:06:45;;;;;;;24.98;14.90;;;;;;;;;;5037488;28;20053;-83
2021/10/15 05:12:49;;;;;;;27.08;13.23;;;;;;;;;;5042866;28;20076;-84
2021/10/15 05:15:52;;;;;;;;;;;;;;;;;;;;;
2021/10/15 05:18:23;;;;;;;20.90;12.63;;;;;;;;;;5054892;28;20063;-85
2021/10/15 05:21:05;;;;;;;30.50;13.88;;;;;;;;;;5039892;28;20227;-84
2021/10/15 05:23:50;;;;;;;25.45;13.77;;;;;;;;;;5055595;28;20053;-85
2021/10/15 05:26:27;;;;;;;21.15;11.65;;;;;;;;;;5043091;28;20064;-84
2021/10/15 05:29:03;;;;;;;19.67;12.93;;;;;;;;;;5060224;28;20130;-84
2021/10/15 05:34:49;;;;;;;21.50;12.95;;;;;;;;;;5082988;28;20095;-84
2021/10/15 05:37:50;;;;;;;24.85;13.20;;;;;;;;;;5002884;28;20053;-84
2021/10/15 05:40:31;;;;;;;18.13;11.57;;;;;;;;;;4996191;28;20057;-84
2021/10/15 05:43:19;;;;;;;18.10;12.88;;;;;;;;;;4996018;28;20062;-86
2021/10/15 05:46:20;;;;;;;20.88;12.57;;;;;;;;;;4972118;28;20157;-84
2021/10/15 05:49:12;;;;;;;20.52;12.93;;;;;;;;;;4976627;28;20062;-84
2021/10/15 05:55:26;;;;;;;21.45;12.57;;;;;;;;;;5031085;28;20057;-83
2021/10/15 06:01:10;;;;;;;17.65;12.30;;;;;;;;;;5066813;28;20230;-84
2021/10/15 06:07:58;;;;;;;19.98;12.48;;;;;;;;;;5123063;22;20040;-85
2021/10/15 06:15:50;;;;;;;23.70;12.27;;;;;;;;;;5055838;28;20048;-83
2021/10/15 06:19:11;;;;;;;23.88;12.95;;;;;;;;;;5068774;28;20083;-84
2021/10/15 06:21:55;;;;;;;24.30;13.45;;;;;;;;;;5073360;28;20061;-84
2021/10/15 06:24:30;;;;;;;23.27;13.57;;;;;;;;;;5074371;28;20086;-85
2021/10/15 06:27:01;;;;;;;20.70;13.55;;;;;;;;;;5056530;28;20053;-86
2021/10/15 06:29:30;;;;;;;20.20;12.82;;;;;;;;;;5036226;28;20060;-86
2021/10/15 06:31:59;;;;;;;23.60;14.93;;;;;;;;;;5037796;28;20053;-86
2021/10/15 06:34:30;;;;;;;26.45;14.05;;;;;;;;;;5037276;28;20055;-85
2021/10/15 06:37:18;;;;;;;22.30;15.40;;;;;;;;;;5037616;28;20057;-85
2021/10/15 06:39:56;;;;;;;24.63;16.58;;;;;;;;;;5045364;28;20116;-85
2021/10/15 06:42:35;;;;;;;28.33;16.70;;;;;;;;;;5073085;28;20141;-84
2021/10/15 06:45:08;;;;;;;29.08;18.95;;;;;;;;;;5053872;28;20053;-86
2021/10/15 06:47:35;;;;;;;31.67;18.80;;;;;;;;;;5055145;28;20053;-87
2021/10/15 06:50:09;;;;;;;32.17;20.42;;;;;;;;;;5038899;28;20057;-87
2021/10/15 06:53:05;;;;;;;35.70;20.60;;;;;;;;;;5048959;28;20133;-88
2021/10/15 06:55:34;;;;;;;35.80;22.73;;;;;;;;;;5059824;28;20048;-87
2021/10/15 06:58:07;;;;;;;22.23;9.32;;;;;;;;;;5057356;28;20052;-90
2021/10/15 07:00:44;;;;;;;11.38;5.03;;;;;;;;;;5058547;28;20049;-91
2021/10/15 07:06:47;;;;;;;14.35;6.78;;;;;;;;;;5068954;28;20287;-92
2021/10/15 07:09:36;;;;;;;18.15;7.40;;;;;;;;;;5057739;28;20053;-90
2021/10/15 07:12:36;;;;;;;;;;;;;;;;;;;;;
2021/10/15 07:15:17;;;;;;;5.50;2.00;;;;;;;;;;5065827;28;20095;-87
2021/10/15 07:17:56;;;;;;;4.65;1.33;;;;;;;;;;5067531;28;20053;-87
2021/10/15 07:20:43;;;;;;;4.97;0.80;;;;;;;;;;5056241;28;20461;-87
2021/10/15 07:23:28;;;;;;;3.13;1.08;;;;;;;;;;5054381;28;20396;-88
2021/10/15 07:26:14;;;;;;;9.55;3.80;;;;;;;;;;5053456;28;20061;-88
2021/10/15 07:28:52;;;;;;;15.35;5.18;;;;;;;;;;5053554;28;20099;-89
2021/10/15 07:31:45;;;;;;;21.47;9.20;;;;;;;;;;5054898;28;20252;-88
2021/10/15 07:35:03;;;;;;;22.92;6.60;;;;;;;;;;5059496;28;20049;-88
2021/10/15 07:42:16;;;;;;;;;;;;;;;;;;;;;
2021/10/15 07:49:01;;;;;;;;;;;;;;;;;;;;;
2021/10/15 07:52:01;;;;;;;14.90;4.88;;;;;;;;;;4980240;28;20232;-86
2021/10/15 07:55:08;;;;;;;18.75;5.25;;;;;;;;;;4983724;28;20105;-86
2021/10/15 07:57:56;;;;;;;22.90;7.05;;;;;;;;;;5061175;28;20044;-88
2021/10/15 08:00:45;;;;;;;19.17;6.18;;;;;;;;;;5052849;28;20044;-87
2021/10/15 08:04:05;;;;;;;;;;;;;;;;;;;;;
2021/10/15 08:07:07;;;;;;;9.43;2.42;;;;;;;;;;5054322;28;20239;-87
2021/10/15 08:09:58;;;;;;;7.20;1.48;;;;;;;;;;5055428;28;20041;-87
2021/10/15 08:12:45;;;;;;;9.63;1.30;;;;;;;;;;5053935;28;20364;-86
2021/10/15 08:15:31;;;;;;;4.82;1.13;;;;;;;;;;5057181;28;20071;-88
2021/10/15 08:18:48;;;;;;;;;;;;;;;;;;;;;
2021/10/15 08:25:31;;;;;;;8.68;1.08;;;;;;;;;;5050620;28;20049;-87
2021/10/15 08:28:59;;;;;;;9.25;1.27;;;;;;;;;;5070324;28;20408;-87
2021/10/15 08:31:45;;;;;;;7.55;1.25;;;;;;;;;;5061778;28;20053;-87
2021/10/15 08:34:43;;;;;;;;;;;;;;;;;;;;;
2021/10/15 08:43:47;;;;;;;6.65;1.67;;;;;;;;;;5331655;22;20059;-89
2021/10/15 08:46:49;;;;;;;6.90;1.50;;;;;;;;;;5053463;28;20056;-87
2021/10/15 08:57:02;;;;;;;7.30;1.48;;;;;;;;;;4997981;28;20069;-86
2021/10/15 09:03:16;;;;;;;;;;;;;;;;;;;;;
2021/10/15 09:06:03;;;;;;;4.93;0.75;;;;;;;;;;4995963;28;20057;-86
2021/10/15 09:08:56;;;;;;;11.43;1.42;;;;;;;;;;4992936;28;20457;-87
2021/10/15 09:14:48;;;;;;;12.65;1.75;;;;;;;;;;4990447;28;20070;-87
2021/10/15 09:17:41;;;;;;;3.92;0.65;;;;;;;;;;4994035;28;20195;-87
2021/10/15 09:20:50;;;;;;;9.48;1.13;;;;;;;;;;4959279;28;20094;-87
2021/10/15 09:31:27;;;;;;;;;;;;;;;;;;;;;
2021/10/15 09:34:47;;;;;;;;;;;;;;;;;;;;;
2021/10/15 09:45:02;;;;;;;6.22;0.82;;;;;;;;;;4803871;29;20152;-86
2021/10/15 09:48:07;;;;;;;3.88;0.93;;;;;;;;;;4858955;29;20033;-85
2021/10/15 09:50:35;;;;;;;58.88;3.00;;;;;;;;;;4845819;29;20113;-85
2021/10/15 09:53:13;;;;;;;11.18;1.42;;;;;;;;;;4928722;29;20183;-85
2021/10/15 09:55:43;;;;;;;11.82;1.30;;;;;;;;;;4931458;29;20075;-84
2021/10/15 09:58:18;;;;;;;4.63;1.08;;;;;;;;;;4926414;29;20150;-84
2021/10/15 10:00:52;;;;;;;5.75;0.90;;;;;;;;;;4898696;29;20262;-84
2021/10/15 10:03:20;;;;;;;7.43;1.58;;;;;;;;;;4907596;29;20440;-84
2021/10/15 10:05:50;;;;;;;6.93;1.45;;;;;;;;;;4911074;29;20086;-82
2021/10/15 10:08:23;;;;;;;8.02;1.45;;;;;;;;;;4909662;29;20098;-83
2021/10/15 10:10:54;;;;;;;9.70;1.45;;;;;;;;;;4933003;28;20062;-84
2021/10/15 10:13:21;;;;;;;6.85;1.17;;;;;;;;;;4974118;28;20061;-83
2021/10/15 10:15:50;;;;;;;5.78;1.10;;;;;;;;;;4974309;28;20113;-83
2021/10/15 10:18:26;;;;;;;8.23;1.92;;;;;;;;;;4987444;28;20077;-82
2021/10/15 10:20:55;;;;;;;10.93;1.13;;;;;;;;;;4981607;28;20576;-82
2021/10/15 10:23:26;;;;;;;11.95;1.23;;;;;;;;;;5042979;28;20119;-81
2021/10/15 10:26:08;;;;;;;13.35;2.08;;;;;;;;;;5043791;28;20062;-84
2021/10/15 10:28:58;;;;;;;11.05;1.77;;;;;;;;;;5034515;28;20175;-83
2021/10/15 10:31:32;;;;;;;13.93;2.50;;;;;;;;;;5012641;28;20115;-83
2021/10/15 10:34:03;;;;;;;15.80;1.80;;;;;;;;;;5028083;28;20053;-82
2021/10/15 10:36:51;;;;;;;16.80;3.47;;;;;;;;;;5041163;28;20428;-81
2021/10/15 10:39:19;;;;;;;17.80;2.25;;;;;;;;;;5042038;28;20069;-83
2021/10/15 10:42:12;;;;;;;10.80;2.65;;;;;;;;;;5046703;28;20059;-83
2021/10/15 10:44:49;;;;;;;17.55;3.38;;;;;;;;;;5049619;28;20059;-83
2021/10/15 10:47:47;;;;;;;13.57;1.90;;;;;;;;;;5064549;28;20134;-83
2021/10/15 10:50:18;;;;;;;10.90;2.38;;;;;;;;;;5041636;28;20519;-82
2021/10/15 10:52:45;;;;;;;6.38;1.60;;;;;;;;;;5042797;28;20083;-82
2021/10/15 10:55:36;;;;;;;11.07;1.55;;;;;;;;;;5054151;28;20529;-83
2021/10/15 10:58:31;;;;;;;11.23;1.88;;;;;;;;;;5031674;28;20215;-82
2021/10/15 11:01:26;;;;;;;19.27;3.25;;;;;;;;;;5028852;28;20060;-82
2021/10/15 11:04:21;;;;;;;11.98;2.45;;;;;;;;;;5027127;28;20060;-82
2021/10/15 11:06:59;;;;;;;13.10;2.60;;;;;;;;;;5038666;28;20376;-82
2021/10/15 11:09:30;;;;;;;14.23;2.65;;;;;;;;;;5046978;28;20469;-83
2021/10/15 11:11:58;;;;;;;12.85;3.28;;;;;;;;;;5046142;28;20166;-82
2021/10/15 11:14:46;;;;;;;18.75;3.13;;;;;;;;;;5045055;28;20186;-82
2021/10/15 11:17:15;;;;;;;11.73;2.20;;;;;;;;;;5048990;28;20134;-84
2021/10/15 11:19:42;;;;;;;13.50;2.45;;;;;;;;;;5046974;28;20097;-82
2021/10/15 11:22:09;;;;;;;13.00;2.20;;;;;;;;;;5046829;28;20052;-83
2021/10/15 11:24:36;;;;;;;16.40;3.10;;;;;;;;;;5028297;28;20123;-82
2021/10/15 11:27:22;;;;;;;15.98;2.80;;;;;;;;;;5027021;28;20076;-82
2021/10/15 11:29:55;;;;;;;15.30;2.35;;;;;;;;;;5027850;28;20068;-82
2021/10/15 11:32:31;;;;;;;14.75;2.67;;;;;;;;;;5025946;28;20325;-82
2021/10/15 11:35:04;;;;;;;17.77;2.88;;;;;;;;;;5043188;28;20308;-82
2021/10/15 11:37:50;;;;;;;20.35;2.85;;;;;;;;;;5048370;28;20075;-83
2021/10/15 11:40:20;;;;;;;9.70;1.95;;;;;;;;;;5050093;28;20277;-83
2021/10/15 11:45:44;;;;;;;10.60;2.30;;;;;;;;;;5057014;28;20284;-82
2021/10/15 11:48:15;;;;;;;6.93;2.08;;;;;;;;;;5055445;28;20082;-82
2021/10/15 11:51:00;;;;;;;12.75;2.25;;;;;;;;;;5049729;28;20067;-83
2021/10/15 11:53:37;;;;;;;13.57;2.63;;;;;;;;;;5045108;28;20062;-83
2021/10/15 11:56:08;;;;;;;9.93;2.40;;;;;;;;;;5068988;28;20420;-82
2021/10/15 11:58:41;;;;;;;15.77;2.95;;;;;;;;;;5051571;28;20057;-81
2021/10/15 12:01:10;;;;;;;11.80;2.30;;;;;;;;;;5050767;28;20172;-83
2021/10/15 12:03:59;;;;;;;10.38;2.20;;;;;;;;;;5043682;28;20053;-84
2021/10/15 12:06:51;;;;;;;14.65;2.75;;;;;;;;;;5060622;28;20079;-84
2021/10/15 12:09:20;;;;;;;16.38;4.00;;;;;;;;;;5059402;28;20048;-84
2021/10/15 12:11:51;;;;;;;19.10;3.33;;;;;;;;;;5048516;28;20049;-84
2021/10/15 12:14:28;;;;;;;20.42;3.53;;;;;;;;;;5032583;28;20057;-84
2021/10/15 12:17:13;;;;;;;18.08;4.00;;;;;;;;;;5031426;28;20111;-84
2021/10/15 12:19:47;;;;;;;12.65;2.85;;;;;;;;;;5029650;28;20059;-84
2021/10/15 12:22:20;;;;;;;11.02;1.58;;;;;;;;;;5029187;28;20376;-83
2021/10/15 12:24:49;;;;;;;9.15;1.98;;;;;;;;;;5052199;28;20340;-83
2021/10/15 12:27:24;;;;;;;8.93;1.80;;;;;;;;;;5046612;28;20049;-84
2021/10/15 12:30:20;;;;;;;10.50;2.35;;;;;;;;;;5029993;28;20064;-83
2021/10/15 12:32:56;;;;;;;14.60;2.30;;;;;;;;;;5030486;28;20090;-83
2021/10/15 12:35:44;;;;;;;17.08;2.42;;;;;;;;;;5033974;28;20146;-84
2021/10/15 12:38:24;;;;;;;19.60;2.85;;;;;;;;;;5068141;28;20053;-85
2021/10/15 12:40:54;;;;;;;19.55;3.60;;;;;;;;;;5068180;28;20111;-84
2021/10/15 12:43:24;;;;;;;17.92;3.47;;;;;;;;;;5063258;28;20060;-83
2021/10/15 12:45:55;;;;;;;24.25;3.22;;;;;;;;;;5044887;28;20067;-83
2021/10/15 12:48:30;;;;;;;14.57;3.17;;;;;;;;;;5048953;28;20432;-83
2021/10/15 12:51:08;;;;;;;15.88;3.38;;;;;;;;;;5044756;28;20252;-83
2021/10/15 12:53:35;;;;;;;15.63;2.72;;;;;;;;;;5045231;28;20187;-83
2021/10/15 12:56:34;;;;;;;9.13;2.13;;;;;;;;;;5034992;28;20057;-83
2021/10/15 12:59:16;;;;;;;16.52;2.70;;;;;;;;;;5042556;28;20057;-83
2021/10/15 13:01:47;;;;;;;8.93;2.05;;;;;;;;;;5041382;28;20091;-84
2021/10/15 13:04:34;;;;;;;10.30;2.00;;;;;;;;;;5038577;28;20148;-83
2021/10/15 13:07:15;;;;;;;12.30;2.35;;;;;;;;;;5033441;28;20253;-82
2021/10/15 13:09:45;;;;;;;13.52;2.08;;;;;;;;;;5038707;28;20044;-83
2021/10/15 13:12:13;;;;;;;16.35;2.40;;;;;;;;;;5023963;28;20048;-82
2021/10/15 13:14:46;;;;;;;9.57;2.45;;;;;;;;;;5045803;28;20128;-84
2021/10/15 13:17:47;;;;;;;12.85;1.80;;;;;;;;;;5035505;28;20146;-84
2021/10/15 13:20:50;;;;;;;21.02;2.17;;;;;;;;;;5049985;28;20049;-83
2021/10/15 13:23:32;;;;;;;13.35;1.70;;;;;;;;;;5054937;28;20114;-83
2021/10/15 13:26:13;;;;;;;10.55;1.65;;;;;;;;;;5049941;28;20068;-84
2021/10/15 13:29:15;;;;;;;13.38;1.85;;;;;;;;;;5062679;28;20056;-83
2021/10/15 13:32:18;;;;;;;;;;;;;;;;;;;;;
2021/10/15 13:34:52;;;;;;;9.77;1.60;;;;;;;;;;5046007;28;20455;-83
2021/10/15 13:37:28;;;;;;;20.00;2.65;;;;;;;;;;5030452;28;20160;-84
2021/10/15 13:40:10;;;;;;;10.02;1.70;;;;;;;;;;5043109;28;20065;-83
2021/10/15 13:43:04;;;;;;;14.02;2.00;;;;;;;;;;5054151;28;20045;-83
2021/10/15 13:51:02;;;;;;;9.75;1.83;;;;;;;;;;5051614;28;20380;-82
2021/10/15 13:53:53;;;;;;;16.80;1.80;;;;;;;;;;5058399;28;20062;-83
2021/10/15 13:56:20;;;;;;;14.30;2.00;;;;;;;;;;5074476;28;20074;-83
2021/10/15 13:58:53;;;;;;;11.30;1.85;;;;;;;;;;5068823;28;20045;-84
2021/10/15 14:01:24;;;;;;;11.60;1.77;;;;;;;;;;5067478;28;20056;-84
2021/10/15 14:06:47;;;;;;;16.50;2.42;;;;;;;;;;5016329;28;20060;-83
2021/10/15 14:09:25;;;;;;;12.55;1.83;;;;;;;;;;5048230;28;20220;-83
2021/10/15 14:12:10;;;;;;;12.93;1.88;;;;;;;;;;5048921;28;20111;-83
2021/10/15 14:14:49;;;;;;;14.30;2.20;;;;;;;;;;5049544;28;20139;-82
2021/10/15 14:17:25;;;;;;;14.05;1.73;;;;;;;;;;5046233;28;20128;-83
2021/10/15 14:20:00;;;;;;;16.20;2.40;;;;;;;;;;5046185;28;20214;-82
2021/10/15 14:22:43;;;;;;;13.10;1.42;;;;;;;;;;5047968;28;20343;-83
2021/10/15 14:25:25;;;;;;;11.52;1.67;;;;;;;;;;5043905;28;20098;-82
2021/10/15 14:27:54;;;;;;;21.85;2.00;;;;;;;;;;5064211;28;20091;-83
2021/10/15 14:30:33;;;;;;;10.88;2.22;;;;;;;;;;5064224;28;20068;-83
2021/10/15 14:33:20;;;;;;;7.18;1.40;;;;;;;;;;5049241;28;20064;-84
2021/10/15 14:35:47;;;;;;;17.15;2.05;;;;;;;;;;5047486;28;20306;-83
2021/10/15 14:38:14;;;;;;;11.80;1.58;;;;;;;;;;5048338;28;20095;-83
2021/10/15 14:40:47;;;;;;;12.27;1.55;;;;;;;;;;5067541;28;20102;-83
2021/10/15 14:43:21;;;;;;;9.05;1.25;;;;;;;;;;5075260;28;20070;-84
2021/10/15 14:45:58;;;;;;;6.97;1.33;;;;;;;;;;4907637;28;4984351;-83
2021/10/15 14:48:44;;;;;;;8.63;1.58;;;;;;;;;;5085755;28;20401;-83
2021/10/15 14:51:22;;;;;;;10.98;1.60;;;;;;;;;;5089699;28;20499;-83
2021/10/15 14:53:53;;;;;;;14.90;1.83;;;;;;;;;;5070418;28;20124;-83
2021/10/15 14:56:32;;;;;;;12.35;1.75;;;;;;;;;;5058210;28;20054;-83
2021/10/15 14:59:20;;;;;;;8.77;1.08;;;;;;;;;;5046847;28;20323;-84
2021/10/15 15:02:17;;;;;;;6.15;1.10;;;;;;;;;;5061661;28;20299;-83
2021/10/15 15:04:48;;;;;;;10.25;1.67;;;;;;;;;;5027059;28;20306;-84
2021/10/15 15:07:26;;;;;;;8.38;1.35;;;;;;;;;;5028117;28;20449;-83
2021/10/15 15:10:05;;;;;;;16.20;2.00;;;;;;;;;;5047402;28;20066;-83
2021/10/15 15:12:56;;;;;;;13.02;1.80;;;;;;;;;;5047892;28;20366;-83
2021/10/15 15:19:20;;;;;;;12.48;1.45;;;;;;;;;;5067623;28;20039;-83
2021/10/15 15:22:09;;;;;;;11.32;1.33;;;;;;;;;;5069383;28;20052;-84
2021/10/15 15:25:05;;;;;;;14.48;1.63;;;;;;;;;;5029479;28;20053;-84
2021/10/15 15:27:43;;;;;;;11.15;1.50;;;;;;;;;;5049503;28;20179;-83
2021/10/15 15:30:22;;;;;;;9.68;1.52;;;;;;;;;;5080040;28;20044;-83
2021/10/15 15:33:01;;;;;;;13.52;1.83;;;;;;;;;;5064245;28;20045;-84
2021/10/15 15:35:45;;;;;;;12.45;2.58;;;;;;;;;;5064082;28;20040;-84
2021/10/15 15:38:42;;;;;;;13.38;2.30;;;;;;;;;;5041014;28;20048;-84
2021/10/15 15:41:15;;;;;;;12.70;2.15;;;;;;;;;;5080317;28;20080;-84
2021/10/15 15:44:16;;;;;;;11.13;2.00;;;;;;;;;;5063224;28;20173;-83
2021/10/15 15:47:26;;;;;;;;;;;;;;;;;;;;;
2021/10/15 15:50:28;;;;;;;16.13;2.28;;;;;;;;;;5024959;28;20097;-83
2021/10/15 15:53:29;;;;;;;8.20;1.75;;;;;;;;;;5014357;28;20340;-84
2021/10/15 15:59:10;;;;;;;17.85;3.17;;;;;;;;;;5034010;28;20298;-83
2021/10/15 16:02:18;;;;;;;9.82;2.08;;;;;;;;;;5032775;28;20060;-83
2021/10/15 16:05:15;;;;;;;11.55;1.65;;;;;;;;;;4981192;28;20383;-83
2021/10/15 16:08:12;;;;;;;;;;;;;;;;;;;;;
2021/10/15 16:11:21;;;;;;;11.63;2.10;;;;;;;;;;4982791;28;20050;-82
2021/10/15 16:14:19;;;;;;;;;;;;;;;;;;;;;
2021/10/15 16:16:57;;;;;;;10.75;1.65;;;;;;;;;;4992828;28;20046;-83
2021/10/15 16:19:43;;;;;;;9.13;1.42;;;;;;;;;;4990755;28;20528;-83
2021/10/15 16:25:50;;;;;;;17.88;1.90;;;;;;;;;;4988963;28;20036;-82
2021/10/15 16:29:02;;;;;;;13.65;1.55;;;;;;;;;;4989383;28;20474;-83
2021/10/15 16:32:11;;;;;;;14.23;1.42;;;;;;;;;;4984041;28;20133;-83
2021/10/15 16:38:36;;;;;;;10.88;1.77;;;;;;;;;;5046578;28;20453;-84
2021/10/15 16:41:45;;;;;;;9.95;1.38;;;;;;;;;;5035598;28;20098;-83
2021/10/15 16:44:46;;;;;;;12.93;1.60;;;;;;;;;;5050889;28;20057;-84
2021/10/15 16:53:55;;;;;;;15.70;1.98;;;;;;;;;;5051004;28;20064;-84
2021/10/15 16:57:30;;;;;;;19.45;2.85;;;;;;;;;;5033503;28;20135;-83
2021/10/15 16:59:38;;;;;;;10.55;1.48;;;;;;;;;;5042740;28;20056;-82
2021/10/15 17:02:20;;;;;;;9.75;1.45;;;;;;;;;;5055584;28;20242;-83
2021/10/15 17:04:56;;;;;;;10.13;1.85;;;;;;;;;;5048615;28;20041;-83
2021/10/15 17:07:32;;;;;;;13.75;1.55;;;;;;;;;;5080474;28;20128;-83
2021/10/15 17:10:47;;;;;;;11.05;1.55;;;;;;;;;;5023198;28;20587;-83
2021/10/15 17:13:44;;;;;;;11.52;1.60;;;;;;;;;;5052540;28;20124;-84
2021/10/15 17:16:46;;;;;;;18.67;2.03;;;;;;;;;;5058962;28;20036;-83
2021/10/15 17:19:35;;;;;;;6.80;1.85;;;;;;;;;;5055229;28;20584;-83
2021/10/15 17:22:22;;;;;;;11.00;1.80;;;;;;;;;;5041744;28;20094;-83
2021/10/15 17:28:11;;;;;;;15.95;1.83;;;;;;;;;;5053014;28;20433;-82
2021/10/15 17:31:17;;;;;;;12.65;1.95;;;;;;;;;;5027647;28;20342;-82
2021/10/15 17:34:07;;;;;;;10.85;2.55;;;;;;;;;;5042201;28;20381;-83
2021/10/15 17:37:16;;;;;;;;;;;;;;;;;;;;;
2021/10/15 17:40:15;;;;;;;13.35;2.10;;;;;;;;;;5015163;28;20055;-82
2021/10/15 17:42:52;;;;;;;9.98;2.58;;;;;;;;;;4994341;28;20085;-83
2021/10/15 17:45:57;;;;;;;;;;;;;;;;;;;;;
2021/10/15 17:48:48;;;;;;;13.10;2.63;;;;;;;;;;5002524;28;20041;-83
2021/10/15 17:51:26;;;;;;;13.30;2.30;;;;;;;;;;5023076;28;20041;-82
2021/10/15 17:54:26;;;;;;;17.98;1.95;;;;;;;;;;5016186;28;20152;-83
2021/10/15 17:57:02;;;;;;;12.15;2.40;;;;;;;;;;4991700;28;20113;-83
2021/10/15 18:00:19;;;;;;;15.93;2.05;;;;;;;;;;5009308;28;20045;-85
2021/10/15 18:02:54;;;;;;;15.60;2.38;;;;;;;;;;5000077;28;20215;-83
2021/10/15 18:05:36;;;;;;;13.20;2.47;;;;;;;;;;5014340;28;20397;-83
2021/10/15 18:11:54;;;;;;;21.63;2.60;;;;;;;;;;5010397;28;20196;-83
2021/10/15 18:14:25;;;;;;;11.90;2.03;;;;;;;;;;5004002;28;20053;-82
2021/10/15 18:17:15;;;;;;;19.48;2.22;;;;;;;;;;5025745;28;20352;-83
2021/10/15 18:20:03;;;;;;;16.25;2.45;;;;;;;;;;5032771;28;20053;-83
2021/10/15 18:23:22;;;;;;;8.63;1.73;;;;;;;;;;5050447;28;20049;-83
2021/10/15 18:26:12;;;;;;;11.38;1.48;;;;;;;;;;5037261;28;20232;-83
2021/10/15 18:28:52;;;;;;;13.68;3.45;;;;;;;;;;5041028;28;20048;-82
2021/10/15 18:31:37;;;;;;;15.18;2.42;;;;;;;;;;5040326;28;20135;-83
2021/10/15 18:34:09;;;;;;;19.45;2.65;;;;;;;;;;5038112;28;20065;-82
2021/10/15 18:36:47;;;;;;;15.55;2.45;;;;;;;;;;5039611;28;20083;-83
2021/10/15 18:39:26;;;;;;;14.35;2.28;;;;;;;;;;5044511;28;20274;-83